sensor_id;sensor_type;location;lat;lon;timestamp;P1;durP1;ratioP1;P2;durP2;ratioP2
18320;SDS011;54904;54.350;18.664;2023-05-16T00:00:00;1.10;;;1.10;;
18320;SDS011;54904;54.350;18.664;2023-05-16T00:02:30;1.63;;;1.40;;
18320;SDS011;54904;54.350;18.664;2023-05-16T00:04:59;1.43;;;1.43;;
18320;SDS011;54904;54.350;18.664;2023-05-16T00:07:26;1.37;;;1.37;;
18320;SDS011;54904;54.350;18.664;2023-05-16T00:09:53;1.40;;;1.40;;
18320;SDS011;54904;54.350;18.664;2023-05-16T00:16:01;1.70;;;1.60;;
18320;SDS011;54904;54.350;18.664;2023-05-16T00:18:28;1.87;;;1.77;;
18320;SDS011;54904;54.350;18.664;2023-05-16T00:20:57;1.77;;;1.67;;
18320;SDS011;54904;54.350;18.664;2023-05-16T00:23:24;1.30;;;1.30;;
18320;SDS011;54904;54.350;18.664;2023-05-16T00:25:51;1.20;;;1.20;;
18320;SDS011;54904;54.350;18.664;2023-05-16T00:28:18;1.10;;;1.10;;
18320;SDS011;54904;54.350;18.664;2023-05-16T00:30:45;1.33;;;1.33;;
18320;SDS011;54904;54.350;18.664;2023-05-16T00:33:14;1.30;;;1.20;;
18320;SDS011;54904;54.350;18.664;2023-05-16T00:35:41;1.30;;;1.30;;
18320;SDS011;54904;54.350;18.664;2023-05-16T00:38:11;1.47;;;1.37;;
18320;SDS011;54904;54.350;18.664;2023-05-16T00:40:38;1.50;;;1.40;;
18320;SDS011;54904;54.350;18.664;2023-05-16T00:43:08;1.60;;;1.50;;
18320;SDS011;54904;54.350;18.664;2023-05-16T00:45:35;1.30;;;1.30;;
18320;SDS011;54904;54.350;18.664;2023-05-16T00:48:02;1.47;;;1.37;;
18320;SDS011;54904;54.350;18.664;2023-05-16T00:50:29;1.30;;;1.30;;
18320;SDS011;54904;54.350;18.664;2023-05-16T00:52:57;1.33;;;1.30;;
18320;SDS011;54904;54.350;18.664;2023-05-16T00:55:26;1.20;;;1.20;;
18320;SDS011;54904;54.350;18.664;2023-05-16T00:57:53;1.50;;;1.40;;
18320;SDS011;54904;54.350;18.664;2023-05-16T01:00:22;1.10;;;1.10;;
18320;SDS011;54904;54.350;18.664;2023-05-16T01:02:51;0.90;;;0.90;;
18320;SDS011;54904;54.350;18.664;2023-05-16T01:05:18;1.07;;;1.07;;
18320;SDS011;54904;54.350;18.664;2023-05-16T01:07:45;1.20;;;1.20;;
18320;SDS011;54904;54.350;18.664;2023-05-16T01:10:13;2.00;;;1.90;;
18320;SDS011;54904;54.350;18.664;2023-05-16T01:12:43;2.30;;;2.20;;
18320;SDS011;54904;54.350;18.664;2023-05-16T01:15:20;2.37;;;2.27;;
18320;SDS011;54904;54.350;18.664;2023-05-16T01:17:53;2.63;;;2.50;;
18320;SDS011;54904;54.350;18.664;2023-05-16T01:20:29;3.30;;;3.10;;
18320;SDS011;54904;54.350;18.664;2023-05-16T01:23:04;2.67;;;2.57;;
18320;SDS011;54904;54.350;18.664;2023-05-16T01:25:50;4.20;;;3.90;;
18320;SDS011;54904;54.350;18.664;2023-05-16T01:28:23;2.83;;;2.63;;
18320;SDS011;54904;54.350;18.664;2023-05-16T01:30:51;2.57;;;2.47;;
18320;SDS011;54904;54.350;18.664;2023-05-16T01:33:18;2.90;;;2.70;;
18320;SDS011;54904;54.350;18.664;2023-05-16T01:35:47;2.23;;;2.13;;
18320;SDS011;54904;54.350;18.664;2023-05-16T01:38:22;2.60;;;2.50;;
18320;SDS011;54904;54.350;18.664;2023-05-16T01:40:52;1.63;;;1.57;;
18320;SDS011;54904;54.350;18.664;2023-05-16T01:43:24;2.20;;;2.10;;
18320;SDS011;54904;54.350;18.664;2023-05-16T01:45:57;1.90;;;1.80;;
18320;SDS011;54904;54.350;18.664;2023-05-16T01:48:29;1.97;;;1.80;;
18320;SDS011;54904;54.350;18.664;2023-05-16T01:51:02;2.30;;;2.20;;
18320;SDS011;54904;54.350;18.664;2023-05-16T01:53:32;2.30;;;2.20;;
18320;SDS011;54904;54.350;18.664;2023-05-16T01:56:07;1.90;;;1.80;;
18320;SDS011;54904;54.350;18.664;2023-05-16T01:58:42;2.40;;;2.20;;
18320;SDS011;54904;54.350;18.664;2023-05-16T02:01:12;2.20;;;2.10;;
18320;SDS011;54904;54.350;18.664;2023-05-16T02:03:39;2.47;;;2.37;;
18320;SDS011;54904;54.350;18.664;2023-05-16T02:06:06;2.77;;;2.57;;
18320;SDS011;54904;54.350;18.664;2023-05-16T02:08:33;2.80;;;2.60;;
18320;SDS011;54904;54.350;18.664;2023-05-16T02:11:00;2.30;;;2.20;;
18320;SDS011;54904;54.350;18.664;2023-05-16T02:13:30;2.43;;;2.33;;
18320;SDS011;54904;54.350;18.664;2023-05-16T02:16:03;2.00;;;1.90;;
18320;SDS011;54904;54.350;18.664;2023-05-16T02:18:30;1.93;;;1.83;;
18320;SDS011;54904;54.350;18.664;2023-05-16T02:20:58;2.30;;;2.20;;
18320;SDS011;54904;54.350;18.664;2023-05-16T02:23:25;2.87;;;1.40;;
18320;SDS011;54904;54.350;18.664;2023-05-16T02:25:52;2.23;;;2.13;;
18320;SDS011;54904;54.350;18.664;2023-05-16T02:28:21;2.20;;;2.10;;
18320;SDS011;54904;54.350;18.664;2023-05-16T02:30:54;2.73;;;2.53;;
18320;SDS011;54904;54.350;18.664;2023-05-16T02:33:23;2.30;;;2.20;;
18320;SDS011;54904;54.350;18.664;2023-05-16T02:35:51;2.50;;;2.40;;
18320;SDS011;54904;54.350;18.664;2023-05-16T02:38:18;2.73;;;2.60;;
18320;SDS011;54904;54.350;18.664;2023-05-16T02:40:46;2.80;;;2.70;;
18320;SDS011;54904;54.350;18.664;2023-05-16T02:43:14;3.10;;;2.90;;
18320;SDS011;54904;54.350;18.664;2023-05-16T02:45:41;3.30;;;3.10;;
18320;SDS011;54904;54.350;18.664;2023-05-16T02:48:08;2.30;;;2.20;;
18320;SDS011;54904;54.350;18.664;2023-05-16T02:50:37;2.57;;;2.47;;
18320;SDS011;54904;54.350;18.664;2023-05-16T02:53:05;2.67;;;2.57;;
18320;SDS011;54904;54.350;18.664;2023-05-16T02:55:32;2.40;;;2.30;;
18320;SDS011;54904;54.350;18.664;2023-05-16T02:57:59;3.30;;;3.03;;
18320;SDS011;54904;54.350;18.664;2023-05-16T03:00:26;3.03;;;2.83;;
18320;SDS011;54904;54.350;18.664;2023-05-16T03:02:53;2.47;;;2.33;;
18320;SDS011;54904;54.350;18.664;2023-05-16T03:05:20;3.37;;;3.17;;
18320;SDS011;54904;54.350;18.664;2023-05-16T03:07:49;4.77;;;4.30;;
18320;SDS011;54904;54.350;18.664;2023-05-16T03:10:16;3.80;;;3.50;;
18320;SDS011;54904;54.350;18.664;2023-05-16T03:12:44;2.50;;;2.30;;
18320;SDS011;54904;54.350;18.664;2023-05-16T03:15:11;2.40;;;2.30;;
18320;SDS011;54904;54.350;18.664;2023-05-16T03:17:38;2.23;;;2.13;;
18320;SDS011;54904;54.350;18.664;2023-05-16T03:20:06;2.87;;;2.77;;
18320;SDS011;54904;54.350;18.664;2023-05-16T03:22:35;2.43;;;2.30;;
18320;SDS011;54904;54.350;18.664;2023-05-16T03:25:04;3.60;;;3.30;;
18320;SDS011;54904;54.350;18.664;2023-05-16T03:27:32;2.33;;;2.20;;
18320;SDS011;54904;54.350;18.664;2023-05-16T03:29:59;2.80;;;2.60;;
18320;SDS011;54904;54.350;18.664;2023-05-16T03:32:26;4.00;;;3.70;;
18320;SDS011;54904;54.350;18.664;2023-05-16T03:34:53;5.17;;;3.80;;
18320;SDS011;54904;54.350;18.664;2023-05-16T03:37:21;3.37;;;3.17;;
18320;SDS011;54904;54.350;18.664;2023-05-16T03:39:49;3.17;;;2.97;;
18320;SDS011;54904;54.350;18.664;2023-05-16T03:42:17;2.67;;;2.53;;
18320;SDS011;54904;54.350;18.664;2023-05-16T03:44:44;3.47;;;3.17;;
18320;SDS011;54904;54.350;18.664;2023-05-16T03:47:11;3.00;;;2.80;;
18320;SDS011;54904;54.350;18.664;2023-05-16T03:49:39;2.90;;;2.70;;
18320;SDS011;54904;54.350;18.664;2023-05-16T03:52:06;2.50;;;2.40;;
18320;SDS011;54904;54.350;18.664;2023-05-16T03:54:33;2.20;;;2.10;;
18320;SDS011;54904;54.350;18.664;2023-05-16T03:57:00;2.37;;;2.27;;
18320;SDS011;54904;54.350;18.664;2023-05-16T03:59:29;2.47;;;2.00;;
18320;SDS011;54904;54.350;18.664;2023-05-16T04:01:56;2.70;;;2.50;;
18320;SDS011;54904;54.350;18.664;2023-05-16T04:04:23;3.27;;;3.07;;
18320;SDS011;54904;54.350;18.664;2023-05-16T04:06:50;2.40;;;2.30;;
18320;SDS011;54904;54.350;18.664;2023-05-16T04:09:17;3.00;;;2.80;;
18320;SDS011;54904;54.350;18.664;2023-05-16T04:11:44;2.87;;;2.67;;
18320;SDS011;54904;54.350;18.664;2023-05-16T04:14:11;2.83;;;2.63;;
18320;SDS011;54904;54.350;18.664;2023-05-16T04:16:41;3.10;;;2.90;;
18320;SDS011;54904;54.350;18.664;2023-05-16T04:19:08;2.70;;;2.60;;
18320;SDS011;54904;54.350;18.664;2023-05-16T04:21:35;2.67;;;2.50;;
18320;SDS011;54904;54.350;18.664;2023-05-16T04:24:02;2.17;;;2.07;;
18320;SDS011;54904;54.350;18.664;2023-05-16T04:26:30;1.50;;;1.40;;
18320;SDS011;54904;54.350;18.664;2023-05-16T04:28:57;0.90;;;0.90;;
18320;SDS011;54904;54.350;18.664;2023-05-16T04:31:24;1.13;;;0.97;;
18320;SDS011;54904;54.350;18.664;2023-05-16T04:33:53;0.80;;;0.80;;
18320;SDS011;54904;54.350;18.664;2023-05-16T04:36:20;0.80;;;0.80;;
18320;SDS011;54904;54.350;18.664;2023-05-16T04:38:47;0.80;;;0.80;;
18320;SDS011;54904;54.350;18.664;2023-05-16T04:41:15;0.60;;;0.60;;
18320;SDS011;54904;54.350;18.664;2023-05-16T04:43:42;0.70;;;0.70;;
18320;SDS011;54904;54.350;18.664;2023-05-16T04:46:09;0.70;;;0.70;;
18320;SDS011;54904;54.350;18.664;2023-05-16T04:48:39;0.60;;;0.60;;
18320;SDS011;54904;54.350;18.664;2023-05-16T04:51:07;0.70;;;0.70;;
18320;SDS011;54904;54.350;18.664;2023-05-16T04:53:34;0.50;;;0.50;;
18320;SDS011;54904;54.350;18.664;2023-05-16T04:56:01;0.50;;;0.50;;
18320;SDS011;54904;54.350;18.664;2023-05-16T04:58:30;0.50;;;0.50;;
18320;SDS011;54904;54.350;18.664;2023-05-16T05:00:57;0.50;;;0.50;;
18320;SDS011;54904;54.350;18.664;2023-05-16T05:03:24;0.33;;;0.33;;
18320;SDS011;54904;54.350;18.664;2023-05-16T05:05:52;0.40;;;0.40;;
18320;SDS011;54904;54.350;18.664;2023-05-16T05:08:20;0.43;;;0.43;;
18320;SDS011;54904;54.350;18.664;2023-05-16T05:10:48;0.30;;;0.30;;
18320;SDS011;54904;54.350;18.664;2023-05-16T05:13:15;0.33;;;0.33;;
18320;SDS011;54904;54.350;18.664;2023-05-16T05:15:42;0.43;;;0.43;;
18320;SDS011;54904;54.350;18.664;2023-05-16T05:18:09;0.40;;;0.40;;
18320;SDS011;54904;54.350;18.664;2023-05-16T05:20:39;0.50;;;0.50;;
18320;SDS011;54904;54.350;18.664;2023-05-16T05:23:06;0.60;;;0.60;;
18320;SDS011;54904;54.350;18.664;2023-05-16T05:25:35;0.43;;;0.43;;
18320;SDS011;54904;54.350;18.664;2023-05-16T05:28:02;0.40;;;0.40;;
18320;SDS011;54904;54.350;18.664;2023-05-16T05:30:30;0.77;;;0.60;;
18320;SDS011;54904;54.350;18.664;2023-05-16T05:32:57;0.53;;;0.53;;
18320;SDS011;54904;54.350;18.664;2023-05-16T05:35:27;0.50;;;0.50;;
18320;SDS011;54904;54.350;18.664;2023-05-16T05:37:54;0.40;;;0.40;;
18320;SDS011;54904;54.350;18.664;2023-05-16T05:40:21;0.40;;;0.40;;
18320;SDS011;54904;54.350;18.664;2023-05-16T05:42:49;0.53;;;0.50;;
18320;SDS011;54904;54.350;18.664;2023-05-16T05:45:16;0.50;;;0.50;;
18320;SDS011;54904;54.350;18.664;2023-05-16T05:47:43;0.63;;;0.63;;
18320;SDS011;54904;54.350;18.664;2023-05-16T05:50:11;0.60;;;0.60;;
18320;SDS011;54904;54.350;18.664;2023-05-16T05:52:40;0.50;;;0.50;;
18320;SDS011;54904;54.350;18.664;2023-05-16T05:55:07;0.73;;;0.50;;
18320;SDS011;54904;54.350;18.664;2023-05-16T05:57:34;0.40;;;0.40;;
18320;SDS011;54904;54.350;18.664;2023-05-16T06:00:03;0.80;;;0.80;;
18320;SDS011;54904;54.350;18.664;2023-05-16T06:02:32;0.77;;;0.77;;
18320;SDS011;54904;54.350;18.664;2023-05-16T06:05:00;0.87;;;0.87;;
18320;SDS011;54904;54.350;18.664;2023-05-16T06:07:27;1.17;;;1.00;;
18320;SDS011;54904;54.350;18.664;2023-05-16T06:09:54;1.00;;;1.00;;
18320;SDS011;54904;54.350;18.664;2023-05-16T06:12:21;0.80;;;0.80;;
18320;SDS011;54904;54.350;18.664;2023-05-16T06:14:48;0.70;;;0.70;;
18320;SDS011;54904;54.350;18.664;2023-05-16T06:17:16;0.80;;;0.80;;
18320;SDS011;54904;54.350;18.664;2023-05-16T06:19:43;0.80;;;0.80;;
18320;SDS011;54904;54.350;18.664;2023-05-16T06:22:10;0.80;;;0.80;;
18320;SDS011;54904;54.350;18.664;2023-05-16T06:24:38;1.17;;;0.80;;
18320;SDS011;54904;54.350;18.664;2023-05-16T06:27:05;1.00;;;1.00;;
18320;SDS011;54904;54.350;18.664;2023-05-16T06:29:32;1.00;;;0.90;;
18320;SDS011;54904;54.350;18.664;2023-05-16T06:31:59;0.90;;;0.90;;
18320;SDS011;54904;54.350;18.664;2023-05-16T06:34:28;1.07;;;0.90;;
18320;SDS011;54904;54.350;18.664;2023-05-16T06:36:56;0.90;;;0.80;;
18320;SDS011;54904;54.350;18.664;2023-05-16T06:39:23;0.80;;;0.80;;
18320;SDS011;54904;54.350;18.664;2023-05-16T06:41:51;0.80;;;0.80;;
18320;SDS011;54904;54.350;18.664;2023-05-16T06:44:20;0.73;;;0.73;;
18320;SDS011;54904;54.350;18.664;2023-05-16T06:46:47;6.60;;;1.00;;
18320;SDS011;54904;54.350;18.664;2023-05-16T06:49:15;3.20;;;1.13;;
18320;SDS011;54904;54.350;18.664;2023-05-16T06:51:44;1.97;;;1.00;;
18320;SDS011;54904;54.350;18.664;2023-05-16T06:54:11;3.77;;;1.33;;
18320;SDS011;54904;54.350;18.664;2023-05-16T06:56:38;4.43;;;0.90;;
18320;SDS011;54904;54.350;18.664;2023-05-16T06:59:05;2.63;;;1.10;;
18320;SDS011;54904;54.350;18.664;2023-05-16T07:01:32;4.37;;;1.10;;
18320;SDS011;54904;54.350;18.664;2023-05-16T07:03:59;1.13;;;0.90;;
18320;SDS011;54904;54.350;18.664;2023-05-16T07:06:26;4.43;;;1.07;;
18320;SDS011;54904;54.350;18.664;2023-05-16T07:08:55;4.23;;;1.20;;
18320;SDS011;54904;54.350;18.664;2023-05-16T07:11:22;2.90;;;1.00;;
18320;SDS011;54904;54.350;18.664;2023-05-16T07:13:49;0.90;;;0.90;;
18320;SDS011;54904;54.350;18.664;2023-05-16T07:16:16;0.70;;;0.70;;
18320;SDS011;54904;54.350;18.664;2023-05-16T07:18:43;0.67;;;0.60;;
18320;SDS011;54904;54.350;18.664;2023-05-16T07:21:10;1.07;;;0.60;;
18320;SDS011;54904;54.350;18.664;2023-05-16T07:23:37;3.97;;;1.10;;
18320;SDS011;54904;54.350;18.664;2023-05-16T07:26:05;0.87;;;0.87;;
18320;SDS011;54904;54.350;18.664;2023-05-16T07:28:32;0.50;;;0.50;;
18320;SDS011;54904;54.350;18.664;2023-05-16T07:30:59;2.73;;;0.60;;
18320;SDS011;54904;54.350;18.664;2023-05-16T07:33:26;1.30;;;0.53;;
18320;SDS011;54904;54.350;18.664;2023-05-16T07:35:53;5.60;;;0.87;;
18320;SDS011;54904;54.350;18.664;2023-05-16T07:38:21;3.60;;;0.80;;
18320;SDS011;54904;54.350;18.664;2023-05-16T07:40:48;2.73;;;0.67;;
18320;SDS011;54904;54.350;18.664;2023-05-16T07:43:17;0.40;;;0.40;;
18320;SDS011;54904;54.350;18.664;2023-05-16T07:45:44;0.60;;;0.60;;
18320;SDS011;54904;54.350;18.664;2023-05-16T07:48:11;0.93;;;0.60;;
18320;SDS011;54904;54.350;18.664;2023-05-16T07:50:38;0.50;;;0.50;;
18320;SDS011;54904;54.350;18.664;2023-05-16T07:53:05;1.23;;;0.70;;
18320;SDS011;54904;54.350;18.664;2023-05-16T07:55:33;0.70;;;0.70;;
18320;SDS011;54904;54.350;18.664;2023-05-16T07:58:00;0.50;;;0.50;;
18320;SDS011;54904;54.350;18.664;2023-05-16T08:00:28;0.90;;;0.90;;
18320;SDS011;54904;54.350;18.664;2023-05-16T08:02:56;1.30;;;1.30;;
18320;SDS011;54904;54.350;18.664;2023-05-16T08:05:23;1.50;;;1.40;;
18320;SDS011;54904;54.350;18.664;2023-05-16T08:07:50;1.73;;;1.63;;
18320;SDS011;54904;54.350;18.664;2023-05-16T08:10:17;1.80;;;1.33;;
18320;SDS011;54904;54.350;18.664;2023-05-16T08:12:44;1.53;;;1.43;;
18320;SDS011;54904;54.350;18.664;2023-05-16T08:15:12;1.20;;;1.20;;
18320;SDS011;54904;54.350;18.664;2023-05-16T08:17:41;0.90;;;0.90;;
18320;SDS011;54904;54.350;18.664;2023-05-16T08:20:08;3.47;;;2.13;;
18320;SDS011;54904;54.350;18.664;2023-05-16T08:22:36;3.03;;;1.60;;
18320;SDS011;54904;54.350;18.664;2023-05-16T08:25:03;1.47;;;1.37;;
18320;SDS011;54904;54.350;18.664;2023-05-16T08:27:31;1.10;;;1.10;;
18320;SDS011;54904;54.350;18.664;2023-05-16T08:29:58;1.20;;;1.20;;
18320;SDS011;54904;54.350;18.664;2023-05-16T08:32:25;1.37;;;1.27;;
18320;SDS011;54904;54.350;18.664;2023-05-16T08:34:54;1.20;;;1.20;;
18320;SDS011;54904;54.350;18.664;2023-05-16T08:37:21;1.10;;;1.10;;
18320;SDS011;54904;54.350;18.664;2023-05-16T08:39:48;1.10;;;1.10;;
18320;SDS011;54904;54.350;18.664;2023-05-16T08:42:18;0.97;;;0.97;;
18320;SDS011;54904;54.350;18.664;2023-05-16T08:44:45;1.50;;;1.40;;
18320;SDS011;54904;54.350;18.664;2023-05-16T08:47:15;1.20;;;1.10;;
18320;SDS011;54904;54.350;18.664;2023-05-16T08:49:46;0.90;;;0.90;;
18320;SDS011;54904;54.350;18.664;2023-05-16T08:52:16;1.00;;;1.00;;
18320;SDS011;54904;54.350;18.664;2023-05-16T08:54:44;1.00;;;1.00;;
18320;SDS011;54904;54.350;18.664;2023-05-16T08:57:12;1.77;;;1.00;;
18320;SDS011;54904;54.350;18.664;2023-05-16T08:59:39;0.90;;;0.90;;
18320;SDS011;54904;54.350;18.664;2023-05-16T09:02:07;0.80;;;0.80;;
18320;SDS011;54904;54.350;18.664;2023-05-16T09:04:35;0.97;;;0.97;;
18320;SDS011;54904;54.350;18.664;2023-05-16T09:07:03;1.67;;;1.20;;
18320;SDS011;54904;54.350;18.664;2023-05-16T09:09:41;0.83;;;0.80;;
18320;SDS011;54904;54.350;18.664;2023-05-16T09:12:10;0.93;;;0.93;;
18320;SDS011;54904;54.350;18.664;2023-05-16T09:14:37;0.70;;;0.70;;
18320;SDS011;54904;54.350;18.664;2023-05-16T09:17:04;0.80;;;0.80;;
18320;SDS011;54904;54.350;18.664;2023-05-16T09:19:36;0.90;;;0.90;;
18320;SDS011;54904;54.350;18.664;2023-05-16T09:22:05;1.30;;;0.80;;
18320;SDS011;54904;54.350;18.664;2023-05-16T09:24:36;1.33;;;1.00;;
18320;SDS011;54904;54.350;18.664;2023-05-16T09:27:09;0.90;;;0.90;;
18320;SDS011;54904;54.350;18.664;2023-05-16T09:29:38;1.03;;;1.03;;
18320;SDS011;54904;54.350;18.664;2023-05-16T09:32:09;0.90;;;0.90;;
18320;SDS011;54904;54.350;18.664;2023-05-16T09:34:38;0.80;;;0.80;;
18320;SDS011;54904;54.350;18.664;2023-05-16T09:37:09;0.77;;;0.60;;
18320;SDS011;54904;54.350;18.664;2023-05-16T09:39:38;0.93;;;0.70;;
18320;SDS011;54904;54.350;18.664;2023-05-16T09:42:09;0.70;;;0.70;;
18320;SDS011;54904;54.350;18.664;2023-05-16T09:44:37;0.60;;;0.60;;
18320;SDS011;54904;54.350;18.664;2023-05-16T09:47:05;0.80;;;0.80;;
18320;SDS011;54904;54.350;18.664;2023-05-16T09:49:32;0.70;;;0.70;;
18320;SDS011;54904;54.350;18.664;2023-05-16T09:52:02;0.93;;;0.70;;
18320;SDS011;54904;54.350;18.664;2023-05-16T09:54:30;0.83;;;0.83;;
18320;SDS011;54904;54.350;18.664;2023-05-16T09:56:58;1.00;;;1.00;;
18320;SDS011;54904;54.350;18.664;2023-05-16T09:59:28;1.00;;;1.00;;
18320;SDS011;54904;54.350;18.664;2023-05-16T10:01:56;0.80;;;0.80;;
18320;SDS011;54904;54.350;18.664;2023-05-16T10:04:24;1.13;;;0.90;;
18320;SDS011;54904;54.350;18.664;2023-05-16T10:06:52;2.57;;;1.00;;
18320;SDS011;54904;54.350;18.664;2023-05-16T10:09:22;0.80;;;0.80;;
18320;SDS011;54904;54.350;18.664;2023-05-16T10:11:50;0.83;;;0.83;;
18320;SDS011;54904;54.350;18.664;2023-05-16T10:14:18;1.30;;;1.00;;
18320;SDS011;54904;54.350;18.664;2023-05-16T10:16:47;1.30;;;1.10;;
18320;SDS011;54904;54.350;18.664;2023-05-16T10:19:15;1.50;;;1.20;;
18320;SDS011;54904;54.350;18.664;2023-05-16T10:21:47;1.00;;;0.90;;
18320;SDS011;54904;54.350;18.664;2023-05-16T10:24:20;1.00;;;1.00;;
18320;SDS011;54904;54.350;18.664;2023-05-16T10:26:51;0.87;;;0.87;;
18320;SDS011;54904;54.350;18.664;2023-05-16T10:29:19;1.73;;;0.90;;
18320;SDS011;54904;54.350;18.664;2023-05-16T10:31:48;1.43;;;1.20;;
18320;SDS011;54904;54.350;18.664;2023-05-16T10:34:15;1.30;;;1.30;;
18320;SDS011;54904;54.350;18.664;2023-05-16T10:36:43;1.00;;;1.00;;
18320;SDS011;54904;54.350;18.664;2023-05-16T10:39:12;1.00;;;1.00;;
18320;SDS011;54904;54.350;18.664;2023-05-16T10:41:40;1.40;;;1.30;;
18320;SDS011;54904;54.350;18.664;2023-05-16T10:44:12;1.80;;;1.20;;
18320;SDS011;54904;54.350;18.664;2023-05-16T10:46:41;2.20;;;1.23;;
18320;SDS011;54904;54.350;18.664;2023-05-16T10:49:22;1.23;;;1.23;;
18320;SDS011;54904;54.350;18.664;2023-05-16T10:52:01;1.40;;;1.40;;
18320;SDS011;54904;54.350;18.664;2023-05-16T10:54:34;1.73;;;1.40;;
18320;SDS011;54904;54.350;18.664;2023-05-16T10:57:03;1.58;;;1.48;;
18320;SDS011;54904;54.350;18.664;2023-05-16T10:59:38;4.35;;;1.70;;
18320;SDS011;54904;54.350;18.664;2023-05-16T11:02:22;2.10;;;1.80;;
18320;SDS011;54904;54.350;18.664;2023-05-16T11:04:53;2.70;;;1.53;;
18320;SDS011;54904;54.350;18.664;2023-05-16T11:07:21;1.63;;;1.52;;
18320;SDS011;54904;54.350;18.664;2023-05-16T11:12:36;1.83;;;1.67;;
18320;SDS011;54904;54.350;18.664;2023-05-16T11:15:17;3.13;;;1.53;;
18320;SDS011;54904;54.350;18.664;2023-05-16T11:17:46;2.25;;;1.90;;
18320;SDS011;54904;54.350;18.664;2023-05-16T11:20:28;2.30;;;1.90;;
18320;SDS011;54904;54.350;18.664;2023-05-16T11:25:53;1.77;;;1.67;;
18320;SDS011;54904;54.350;18.664;2023-05-16T11:28:22;2.47;;;2.20;;
18320;SDS011;54904;54.350;18.664;2023-05-16T11:30:51;2.00;;;1.90;;
18320;SDS011;54904;54.350;18.664;2023-05-16T11:33:21;2.20;;;2.00;;
18320;SDS011;54904;54.350;18.664;2023-05-16T11:36:00;1.67;;;1.58;;
18320;SDS011;54904;54.350;18.664;2023-05-16T11:38:28;1.80;;;1.70;;
18320;SDS011;54904;54.350;18.664;2023-05-16T11:41:00;4.43;;;2.30;;
18320;SDS011;54904;54.350;18.664;2023-05-16T11:43:38;2.55;;;2.35;;
18320;SDS011;54904;54.350;18.664;2023-05-16T11:46:06;5.10;;;2.67;;
18320;SDS011;54904;54.350;18.664;2023-05-16T11:48:37;2.20;;;2.00;;
18320;SDS011;54904;54.350;18.664;2023-05-16T11:51:05;2.72;;;2.55;;
18320;SDS011;54904;54.350;18.664;2023-05-16T11:53:33;2.45;;;2.30;;
18320;SDS011;54904;54.350;18.664;2023-05-16T11:56:00;1.95;;;1.85;;
18320;SDS011;54904;54.350;18.664;2023-05-16T11:58:27;2.58;;;2.38;;
18320;SDS011;54904;54.350;18.664;2023-05-16T12:00:55;2.50;;;2.30;;
18320;SDS011;54904;54.350;18.664;2023-05-16T12:03:22;2.78;;;2.60;;
18320;SDS011;54904;54.350;18.664;2023-05-16T12:05:49;2.17;;;2.08;;
18320;SDS011;54904;54.350;18.664;2023-05-16T12:08:19;3.90;;;2.60;;
18320;SDS011;54904;54.350;18.664;2023-05-16T12:10:48;3.90;;;3.60;;
18320;SDS011;54904;54.350;18.664;2023-05-16T12:13:16;4.43;;;4.03;;
18320;SDS011;54904;54.350;18.664;2023-05-16T12:15:44;3.83;;;3.53;;
18320;SDS011;54904;54.350;18.664;2023-05-16T12:18:11;4.05;;;3.20;;
18320;SDS011;54904;54.350;18.664;2023-05-16T12:20:39;5.20;;;3.55;;
18320;SDS011;54904;54.350;18.664;2023-05-16T12:23:09;3.30;;;3.10;;
18320;SDS011;54904;54.350;18.664;2023-05-16T12:25:39;3.85;;;3.47;;
18320;SDS011;54904;54.350;18.664;2023-05-16T12:28:11;3.35;;;3.13;;
18320;SDS011;54904;54.350;18.664;2023-05-16T12:30:39;5.47;;;4.25;;
18320;SDS011;54904;54.350;18.664;2023-05-16T12:33:07;4.90;;;4.32;;
18320;SDS011;54904;54.350;18.664;2023-05-16T12:35:37;9.23;;;4.50;;
18320;SDS011;54904;54.350;18.664;2023-05-16T12:38:05;4.10;;;3.63;;
18320;SDS011;54904;54.350;18.664;2023-05-16T12:40:33;3.03;;;2.72;;
18320;SDS011;54904;54.350;18.664;2023-05-16T12:43:11;5.88;;;4.53;;
18320;SDS011;54904;54.350;18.664;2023-05-16T12:45:38;6.25;;;4.50;;
18320;SDS011;54904;54.350;18.664;2023-05-16T12:48:10;3.88;;;3.58;;
18320;SDS011;54904;54.350;18.664;2023-05-16T12:50:38;4.75;;;3.65;;
18320;SDS011;54904;54.350;18.664;2023-05-16T12:53:09;6.93;;;4.10;;
18320;SDS011;54904;54.350;18.664;2023-05-16T12:55:38;4.60;;;3.80;;
18320;SDS011;54904;54.350;18.664;2023-05-16T12:58:07;5.03;;;3.83;;
18320;SDS011;54904;54.350;18.664;2023-05-16T13:00:35;3.70;;;3.40;;
18320;SDS011;54904;54.350;18.664;2023-05-16T13:03:03;3.28;;;2.97;;
18320;SDS011;54904;54.350;18.664;2023-05-16T13:05:31;5.40;;;3.70;;
18320;SDS011;54904;54.350;18.664;2023-05-16T13:07:59;7.23;;;4.37;;
18320;SDS011;54904;54.350;18.664;2023-05-16T13:10:26;4.80;;;3.50;;
18320;SDS011;54904;54.350;18.664;2023-05-16T13:12:53;3.92;;;3.55;;
18320;SDS011;54904;54.350;18.664;2023-05-16T13:15:24;3.90;;;3.50;;
18320;SDS011;54904;54.350;18.664;2023-05-16T13:17:51;8.43;;;3.73;;
18320;SDS011;54904;54.350;18.664;2023-05-16T13:20:18;4.22;;;3.25;;
18320;SDS011;54904;54.350;18.664;2023-05-16T13:22:45;5.20;;;4.00;;
18320;SDS011;54904;54.350;18.664;2023-05-16T13:25:13;3.80;;;2.77;;
18320;SDS011;54904;54.350;18.664;2023-05-16T13:27:40;3.78;;;2.83;;
18320;SDS011;54904;54.350;18.664;2023-05-16T13:30:07;3.27;;;2.97;;
18320;SDS011;54904;54.350;18.664;2023-05-16T13:32:37;7.13;;;3.90;;
18320;SDS011;54904;54.350;18.664;2023-05-16T13:35:04;4.33;;;3.93;;
18320;SDS011;54904;54.350;18.664;2023-05-16T13:37:32;4.57;;;4.17;;
18320;SDS011;54904;54.350;18.664;2023-05-16T13:39:59;4.17;;;3.77;;
18320;SDS011;54904;54.350;18.664;2023-05-16T13:42:26;5.73;;;3.80;;
18320;SDS011;54904;54.350;18.664;2023-05-16T13:44:53;7.47;;;3.80;;
18320;SDS011;54904;54.350;18.664;2023-05-16T13:47:20;4.60;;;3.63;;
18320;SDS011;54904;54.350;18.664;2023-05-16T13:49:49;3.53;;;3.23;;
18320;SDS011;54904;54.350;18.664;2023-05-16T13:52:16;3.80;;;3.50;;
18320;SDS011;54904;54.350;18.664;2023-05-16T13:54:43;4.33;;;3.23;;
18320;SDS011;54904;54.350;18.664;2023-05-16T13:57:10;3.10;;;2.90;;
18320;SDS011;54904;54.350;18.664;2023-05-16T13:59:37;3.70;;;3.40;;
18320;SDS011;54904;54.350;18.664;2023-05-16T14:02:05;3.53;;;3.03;;
18320;SDS011;54904;54.350;18.664;2023-05-16T14:04:32;3.23;;;2.63;;
18320;SDS011;54904;54.350;18.664;2023-05-16T14:07:00;3.07;;;2.77;;
18320;SDS011;54904;54.350;18.664;2023-05-16T14:09:27;4.93;;;3.77;;
18320;SDS011;54904;54.350;18.664;2023-05-16T14:11:59;4.00;;;3.67;;
18320;SDS011;54904;54.350;18.664;2023-05-16T14:14:28;4.13;;;3.33;;
18320;SDS011;54904;54.350;18.664;2023-05-16T14:16:56;4.30;;;3.73;;
18320;SDS011;54904;54.350;18.664;2023-05-16T14:19:23;3.80;;;3.40;;
18320;SDS011;54904;54.350;18.664;2023-05-16T14:21:50;5.67;;;3.33;;
18320;SDS011;54904;54.350;18.664;2023-05-16T14:24:21;4.17;;;3.30;;
18320;SDS011;54904;54.350;18.664;2023-05-16T14:26:48;4.67;;;3.90;;
18320;SDS011;54904;54.350;18.664;2023-05-16T14:29:22;3.07;;;2.83;;
18320;SDS011;54904;54.350;18.664;2023-05-16T14:31:49;4.10;;;3.20;;
18320;SDS011;54904;54.350;18.664;2023-05-16T14:34:16;3.17;;;2.87;;
18320;SDS011;54904;54.350;18.664;2023-05-16T14:36:43;2.67;;;2.47;;
18320;SDS011;54904;54.350;18.664;2023-05-16T14:39:10;2.00;;;1.90;;
18320;SDS011;54904;54.350;18.664;2023-05-16T14:41:39;2.30;;;2.10;;
18320;SDS011;54904;54.350;18.664;2023-05-16T14:44:07;2.60;;;2.40;;
18320;SDS011;54904;54.350;18.664;2023-05-16T14:46:34;2.60;;;2.40;;
18320;SDS011;54904;54.350;18.664;2023-05-16T14:49:01;2.63;;;2.43;;